메인 페이지
METAR-TAF:

METAR-TAF

공항 :

North Las Vegas Airport

노스라스베이거스, 네바다, 미국

위도: 36-12-42N, 경도: 115-11-45W, 고도: 672m

현재 날씨관측

예보는 38분 전, 02:53시(UTC)에 발표되었습니다.
북서3kt
온도 12°C
습도 32%
기압 1016 hPa
시정: 16.1km
맑음

METAR: KVGT 170253Z 31003KT 10SM CLR 12/M04 A2999 RMK AO2 SLP174 T01221044 55001

시각: 19:31 (03:31 UTC)

예보

예보는 4 시간 11분 전, 23:20시(UTC)에 발표되었습니다.
예보 대상 시간: 17일 00시부터 17일 24시까지 (UTC)
동남동5kt
시정: 10km
고도 20000ft 상공 구름 많음
17일 0400시부터 (UTC)
북서5kt
시정: 10km
고도 20000ft 상공 구름 보통
17일 1500시부터 (UTC)
여러 방향의 바람 4kt
시정: 10km
고도 25000ft 상공 구름 보통

TAF: KVGT 162320Z 1700/1724 12005KT P6SM BKN200 FM170400 32005KT P6SM SCT200 FM171500 VRB04KT P6SM SCT250

4,000개 이상의 공항 관측 자료 및 예보 (METAR 및 TAF 보고).

지도상에서 검색 가능한 기상관측소가 노란 점과 빨간 점으로 표시되어 있습니다.

기상관측소 명을 보려면 표시 위로 마우스를 이동하세요.

날씨 관측과 예보를 보려면 클릭하세요.

지도 변경 : 확대하려면 엑스 표시가 있는 녹색 버튼, 축소하려면 빼기 표시가 있는 녹색 버튼, 다음 페이지의 지도를 보려면 녹색 화살표를 클릭하세요.


METAR-TAF: